Argusville, North Dakota
Current Conditions -  °F | °C
As of 1:14 AM on Friday 19 Dec 2014 (Local Time) from KFAR Reporting Station
Haze Haze  
Wind Chill:   Ceiling: 4100
Heat Index: 22°   Visibility: 6mi
Dew Point: 17°   Wind: 15mph
Humidity: 82%   Direction: 150°SSE
Pressure: 30.15"   Gusts: NA
Location:  47.05°N, 96.93°W
Report Text: KFAR 190714Z 15013KT 6SM HZ FEW012 SCT025 OVC041 M06/M08 A3015 RMK AO2 T10561083
Loading
Personal Weather Stations






























Interactive Weather Map New forecast layout! Learn more

10-Day Weather Forecast

Advertisements
Track Severe Weather on mobile